sensor_id;sensor_type;location;lat;lon;timestamp;pressure;altitude;pressure_sealevel;temperature;humidity
43364;BME280;40636;52.424;-1.948;2023-06-10T00:01:15;99913.34;;;11.65;100.00
43364;BME280;40636;52.424;-1.948;2023-06-10T00:03:43;99920.75;;;11.64;100.00
43364;BME280;40636;52.424;-1.948;2023-06-10T00:06:10;99913.56;;;11.58;100.00
43364;BME280;40636;52.424;-1.948;2023-06-10T00:08:38;99906.28;;;11.47;100.00
43364;BME280;40636;52.424;-1.948;2023-06-10T00:11:06;99911.00;;;11.52;100.00
43364;BME280;40636;52.424;-1.948;2023-06-10T00:13:33;99918.47;;;11.56;100.00
43364;BME280;40636;52.424;-1.948;2023-06-10T00:16:00;99921.16;;;11.51;100.00
43364;BME280;40636;52.424;-1.948;2023-06-10T00:18:26;99916.00;;;11.55;100.00
43364;BME280;40636;52.424;-1.948;2023-06-10T00:20:54;99926.94;;;11.50;100.00
43364;BME280;40636;52.424;-1.948;2023-06-10T00:23:21;99915.44;;;11.58;100.00
43364;BME280;40636;52.424;-1.948;2023-06-10T00:25:49;99915.16;;;11.54;100.00
43364;BME280;40636;52.424;-1.948;2023-06-10T00:28:15;99911.00;;;11.52;100.00
43364;BME280;40636;52.424;-1.948;2023-06-10T00:30:42;99920.84;;;11.48;100.00
43364;BME280;40636;52.424;-1.948;2023-06-10T00:33:09;99906.28;;;11.47;100.00
43364;BME280;40636;52.424;-1.948;2023-06-10T00:35:37;99906.53;;;11.46;100.00
43364;BME280;40636;52.424;-1.948;2023-06-10T00:38:03;99907.38;;;11.46;100.00
43364;BME280;40636;52.424;-1.948;2023-06-10T00:40:30;99896.97;;;11.53;100.00
43364;BME280;40636;52.424;-1.948;2023-06-10T00:42:57;99907.69;;;11.50;100.00
43364;BME280;40636;52.424;-1.948;2023-06-10T00:45:24;99902.44;;;11.48;100.00
43364;BME280;40636;52.424;-1.948;2023-06-10T00:47:51;99899.63;;;11.43;100.00
43364;BME280;40636;52.424;-1.948;2023-06-10T00:50:18;99899.91;;;11.41;100.00
43364;BME280;40636;52.424;-1.948;2023-06-10T00:52:45;99901.22;;;11.39;100.00
43364;BME280;40636;52.424;-1.948;2023-06-10T00:55:16;99895.28;;;11.47;100.00
43364;BME280;40636;52.424;-1.948;2023-06-10T00:57:45;99899.13;;;11.46;100.00
43364;BME280;40636;52.424;-1.948;2023-06-10T01:00:12;99901.38;;;11.49;100.00
43364;BME280;40636;52.424;-1.948;2023-06-10T01:02:40;99903.84;;;11.51;100.00
43364;BME280;40636;52.424;-1.948;2023-06-10T01:05:08;99886.53;;;11.50;100.00
43364;BME280;40636;52.424;-1.948;2023-06-10T01:07:40;99888.44;;;11.50;100.00
43364;BME280;40636;52.424;-1.948;2023-06-10T01:10:11;99889.84;;;11.52;100.00
43364;BME280;40636;52.424;-1.948;2023-06-10T01:12:44;99893.69;;;11.51;100.00
43364;BME280;40636;52.424;-1.948;2023-06-10T01:15:16;99888.41;;;11.45;100.00
43364;BME280;40636;52.424;-1.948;2023-06-10T01:18:13;99881.34;;;11.54;100.00
43364;BME280;40636;52.424;-1.948;2023-06-10T01:20:42;99883.88;;;11.60;100.00
43364;BME280;40636;52.424;-1.948;2023-06-10T01:23:10;99888.25;;;11.56;100.00
43364;BME280;40636;52.424;-1.948;2023-06-10T01:25:39;99880.72;;;11.47;100.00
43364;BME280;40636;52.424;-1.948;2023-06-10T01:33:11;99876.03;;;11.47;100.00
43364;BME280;40636;52.424;-1.948;2023-06-10T01:35:40;99877.41;;;11.45;100.00
43364;BME280;40636;52.424;-1.948;2023-06-10T01:38:08;99873.75;;;11.39;100.00
43364;BME280;40636;52.424;-1.948;2023-06-10T01:40:35;99867.44;;;11.38;100.00
43364;BME280;40636;52.424;-1.948;2023-06-10T01:43:03;99869.41;;;11.43;100.00
43364;BME280;40636;52.424;-1.948;2023-06-10T01:45:30;99870.00;;;11.45;100.00
43364;BME280;40636;52.424;-1.948;2023-06-10T01:47:56;99863.66;;;11.45;100.00
43364;BME280;40636;52.424;-1.948;2023-06-10T01:50:23;99870.44;;;11.37;100.00
43364;BME280;40636;52.424;-1.948;2023-06-10T01:52:50;99854.97;;;11.31;100.00
43364;BME280;40636;52.424;-1.948;2023-06-10T01:55:17;99858.00;;;11.29;100.00
43364;BME280;40636;52.424;-1.948;2023-06-10T01:57:44;99855.84;;;11.31;100.00
43364;BME280;40636;52.424;-1.948;2023-06-10T02:00:11;99863.22;;;11.31;100.00
43364;BME280;40636;52.424;-1.948;2023-06-10T02:02:39;99863.81;;;11.33;100.00
43364;BME280;40636;52.424;-1.948;2023-06-10T02:05:06;99856.44;;;11.38;100.00
43364;BME280;40636;52.424;-1.948;2023-06-10T02:07:34;99857.84;;;11.41;100.00
43364;BME280;40636;52.424;-1.948;2023-06-10T02:10:01;99860.06;;;11.44;100.00
43364;BME280;40636;52.424;-1.948;2023-06-10T02:12:28;99853.22;;;11.47;100.00
43364;BME280;40636;52.424;-1.948;2023-06-10T02:14:55;99853.56;;;11.50;100.00
43364;BME280;40636;52.424;-1.948;2023-06-10T02:17:21;99850.22;;;11.48;100.00
43364;BME280;40636;52.424;-1.948;2023-06-10T02:19:49;99851.66;;;11.29;100.00
43364;BME280;40636;52.424;-1.948;2023-06-10T02:22:23;99842.53;;;11.23;100.00
43364;BME280;40636;52.424;-1.948;2023-06-10T02:24:49;99848.81;;;11.18;100.00
43364;BME280;40636;52.424;-1.948;2023-06-10T02:27:17;99851.22;;;11.15;100.00
43364;BME280;40636;52.424;-1.948;2023-06-10T02:29:44;99841.78;;;11.28;100.00
43364;BME280;40636;52.424;-1.948;2023-06-10T02:32:11;99836.50;;;11.26;100.00
43364;BME280;40636;52.424;-1.948;2023-06-10T02:34:38;99842.00;;;11.26;100.00
43364;BME280;40636;52.424;-1.948;2023-06-10T02:37:05;99842.53;;;11.23;100.00
43364;BME280;40636;52.424;-1.948;2023-06-10T02:39:32;99843.31;;;11.18;100.00
43364;BME280;40636;52.424;-1.948;2023-06-10T02:42:00;99841.66;;;11.17;100.00
43364;BME280;40636;52.424;-1.948;2023-06-10T02:44:27;99833.94;;;11.14;100.00
43364;BME280;40636;52.424;-1.948;2023-06-10T02:46:54;99831.78;;;11.22;100.00
43364;BME280;40636;52.424;-1.948;2023-06-10T02:49:21;99838.06;;;11.17;100.00
43364;BME280;40636;52.424;-1.948;2023-06-10T02:51:49;99840.75;;;11.12;100.00
43364;BME280;40636;52.424;-1.948;2023-06-10T02:54:20;99827.03;;;11.12;100.00
43364;BME280;40636;52.424;-1.948;2023-06-10T02:56:47;99832.34;;;11.18;100.00
43364;BME280;40636;52.424;-1.948;2023-06-10T02:59:14;99834.75;;;11.15;100.00
43364;BME280;40636;52.424;-1.948;2023-06-10T03:01:42;99829.75;;;11.12;100.00
43364;BME280;40636;52.424;-1.948;2023-06-10T03:04:09;99828.94;;;11.11;100.00
43364;BME280;40636;52.424;-1.948;2023-06-10T03:06:36;99819.31;;;11.09;100.00
43364;BME280;40636;52.424;-1.948;2023-06-10T03:09:05;99832.84;;;11.15;100.00
43364;BME280;40636;52.424;-1.948;2023-06-10T03:11:32;99829.59;;;11.18;100.00
43364;BME280;40636;52.424;-1.948;2023-06-10T03:13:58;99826.78;;;11.13;100.00
43364;BME280;40636;52.424;-1.948;2023-06-10T03:16:26;99833.88;;;11.09;100.00
43364;BME280;40636;52.424;-1.948;2023-06-10T03:18:54;99833.88;;;11.09;100.00
43364;BME280;40636;52.424;-1.948;2023-06-10T03:21:21;99834.97;;;11.08;100.00
43364;BME280;40636;52.424;-1.948;2023-06-10T03:23:48;99821.78;;;11.10;100.00
43364;BME280;40636;52.424;-1.948;2023-06-10T03:26:15;99834.44;;;11.11;100.00
43364;BME280;40636;52.424;-1.948;2023-06-10T03:28:42;99828.94;;;11.11;100.00
43364;BME280;40636;52.424;-1.948;2023-06-10T03:31:09;99829.59;;;11.18;100.00
43364;BME280;40636;52.424;-1.948;2023-06-10T03:33:36;99829.47;;;11.08;100.00
43364;BME280;40636;52.424;-1.948;2023-06-10T03:36:04;99825.53;;;10.99;100.00
43364;BME280;40636;52.424;-1.948;2023-06-10T03:38:31;99827.50;;;11.04;100.00
43364;BME280;40636;52.424;-1.948;2023-06-10T03:40:58;99821.69;;;11.00;100.00
43364;BME280;40636;52.424;-1.948;2023-06-10T03:43:24;99829.03;;;10.95;100.00
43364;BME280;40636;52.424;-1.948;2023-06-10T03:45:52;99832.13;;;11.03;100.00
43364;BME280;40636;52.424;-1.948;2023-06-10T03:48:19;99823.41;;;11.06;100.00
43364;BME280;40636;52.424;-1.948;2023-06-10T03:50:45;99829.47;;;11.08;100.00
43364;BME280;40636;52.424;-1.948;2023-06-10T03:53:14;99836.28;;;11.06;100.00
43364;BME280;40636;52.424;-1.948;2023-06-10T03:55:41;99832.66;;;11.00;100.00
43364;BME280;40636;52.424;-1.948;2023-06-10T03:58:08;99834.53;;;10.95;100.00
43364;BME280;40636;52.424;-1.948;2023-06-10T04:00:34;99832.59;;;10.95;100.00
43364;BME280;40636;52.424;-1.948;2023-06-10T04:03:08;99822.78;;;10.99;100.00
43364;BME280;40636;52.424;-1.948;2023-06-10T04:05:36;99832.66;;;11.00;100.00
43364;BME280;40636;52.424;-1.948;2023-06-10T04:08:03;99827.13;;;10.95;100.00
43364;BME280;40636;52.424;-1.948;2023-06-10T04:10:30;99822.19;;;10.97;100.00
43364;BME280;40636;52.424;-1.948;2023-06-10T04:12:56;99822.78;;;10.99;100.00
43364;BME280;40636;52.424;-1.948;2023-06-10T04:15:23;99831.41;;;10.86;100.00
43364;BME280;40636;52.424;-1.948;2023-06-10T04:17:50;99825.38;;;10.89;100.00
43364;BME280;40636;52.424;-1.948;2023-06-10T04:20:17;99829.53;;;10.91;100.00
43364;BME280;40636;52.424;-1.948;2023-06-10T04:22:44;99821.81;;;10.88;100.00
43364;BME280;40636;52.424;-1.948;2023-06-10T04:25:11;99830.94;;;10.94;100.00
43364;BME280;40636;52.424;-1.948;2023-06-10T04:27:38;99827.19;;;11.00;100.00
43364;BME280;40636;52.424;-1.948;2023-06-10T04:30:05;99822.44;;;10.96;100.00
43364;BME280;40636;52.424;-1.948;2023-06-10T04:32:32;99819.19;;;10.99;100.00
43364;BME280;40636;52.424;-1.948;2023-06-10T04:35:00;99831.84;;;11.00;100.00
43364;BME280;40636;52.424;-1.948;2023-06-10T04:37:26;99827.69;;;10.97;100.00
43364;BME280;40636;52.424;-1.948;2023-06-10T04:39:55;99825.19;;;10.96;100.00
43364;BME280;40636;52.424;-1.948;2023-06-10T04:42:23;99825.69;;;10.92;100.00
43364;BME280;40636;52.424;-1.948;2023-06-10T04:44:50;99821.69;;;11.00;100.00
43364;BME280;40636;52.424;-1.948;2023-06-10T04:47:17;99829.16;;;11.05;100.00
43364;BME280;40636;52.424;-1.948;2023-06-10T04:49:44;99824.44;;;11.00;100.00
43364;BME280;40636;52.424;-1.948;2023-06-10T04:52:11;99821.78;;;11.10;100.00
43364;BME280;40636;52.424;-1.948;2023-06-10T04:54:44;99819.59;;;11.12;100.00
43364;BME280;40636;52.424;-1.948;2023-06-10T04:57:11;99821.91;;;11.21;100.00
43364;BME280;40636;52.424;-1.948;2023-06-10T04:59:38;99813.94;;;11.19;100.00
43364;BME280;40636;52.424;-1.948;2023-06-10T05:02:04;99823.06;;;11.25;100.00
43364;BME280;40636;52.424;-1.948;2023-06-10T05:04:32;99819.78;;;11.28;100.00
43364;BME280;40636;52.424;-1.948;2023-06-10T05:06:58;99814.03;;;11.29;100.00
43364;BME280;40636;52.424;-1.948;2023-06-10T05:09:25;99817.66;;;11.35;100.00
43364;BME280;40636;52.424;-1.948;2023-06-10T05:11:52;99814.81;;;11.52;100.00
43364;BME280;40636;52.424;-1.948;2023-06-10T05:14:20;99804.19;;;11.60;100.00
43364;BME280;40636;52.424;-1.948;2023-06-10T05:16:48;99810.31;;;11.67;100.00
43364;BME280;40636;52.424;-1.948;2023-06-10T05:19:15;99810.91;;;11.75;100.00
43364;BME280;40636;52.424;-1.948;2023-06-10T05:21:45;99805.41;;;11.75;100.00
43364;BME280;40636;52.424;-1.948;2023-06-10T05:24:12;99806.22;;;11.75;100.00
43364;BME280;40636;52.424;-1.948;2023-06-10T05:26:38;99805.00;;;11.88;100.00
43364;BME280;40636;52.424;-1.948;2023-06-10T05:29:05;99806.25;;;11.80;100.00
43364;BME280;40636;52.424;-1.948;2023-06-10T05:31:32;99807.28;;;11.69;100.00
43364;BME280;40636;52.424;-1.948;2023-06-10T05:33:59;99804.22;;;11.65;100.00
43364;BME280;40636;52.424;-1.948;2023-06-10T05:36:26;99809.72;;;11.65;100.00
43364;BME280;40636;52.424;-1.948;2023-06-10T05:38:54;99812.38;;;11.55;100.00
43364;BME280;40636;52.424;-1.948;2023-06-10T05:41:20;99819.66;;;11.72;100.00
43364;BME280;40636;52.424;-1.948;2023-06-10T05:43:48;99826.34;;;11.81;100.00
43364;BME280;40636;52.424;-1.948;2023-06-10T05:46:15;99814.75;;;11.74;100.00
43364;BME280;40636;52.424;-1.948;2023-06-10T05:48:42;99818.03;;;11.76;100.00
43364;BME280;40636;52.424;-1.948;2023-06-10T05:51:09;99820.66;;;11.60;100.00
43364;BME280;40636;52.424;-1.948;2023-06-10T05:53:37;99818.84;;;11.71;100.00
43364;BME280;40636;52.424;-1.948;2023-06-10T05:56:05;99821.94;;;11.80;100.00
43364;BME280;40636;52.424;-1.948;2023-06-10T05:58:32;99814.38;;;11.92;100.00
43364;BME280;40636;52.424;-1.948;2023-06-10T06:00:58;99813.59;;;11.97;100.00
43364;BME280;40636;52.424;-1.948;2023-06-10T06:03:26;99819.47;;;12.10;100.00
43364;BME280;40636;52.424;-1.948;2023-06-10T06:05:55;99829.34;;;12.06;100.00
43364;BME280;40636;52.424;-1.948;2023-06-10T06:08:22;99822.84;;;12.17;100.00
43364;BME280;40636;52.424;-1.948;2023-06-10T06:10:49;99825.34;;;12.24;100.00
43364;BME280;40636;52.424;-1.948;2023-06-10T06:13:16;99824.81;;;12.27;100.00
43364;BME280;40636;52.424;-1.948;2023-06-10T06:15:43;99824.59;;;12.39;100.00
43364;BME280;40636;52.424;-1.948;2023-06-10T06:18:10;99816.44;;;12.49;100.00
43364;BME280;40636;52.424;-1.948;2023-06-10T06:20:37;99814.25;;;12.56;100.00
43364;BME280;40636;52.424;-1.948;2023-06-10T06:23:04;99810.38;;;12.52;100.00
43364;BME280;40636;52.424;-1.948;2023-06-10T06:25:31;99809.28;;;12.53;100.00
43364;BME280;40636;52.424;-1.948;2023-06-10T06:27:57;99805.00;;;12.73;100.00
43364;BME280;40636;52.424;-1.948;2023-06-10T06:30:24;99794.84;;;12.83;100.00
43364;BME280;40636;52.424;-1.948;2023-06-10T06:32:51;99796.75;;;12.78;100.00
43364;BME280;40636;52.424;-1.948;2023-06-10T06:35:18;99794.34;;;12.97;100.00
43364;BME280;40636;52.424;-1.948;2023-06-10T06:37:45;99804.03;;;13.14;100.00
43364;BME280;40636;52.424;-1.948;2023-06-10T06:40:12;99804.56;;;13.01;100.00
43364;BME280;40636;52.424;-1.948;2023-06-10T06:42:39;99813.47;;;13.29;100.00
43364;BME280;40636;52.424;-1.948;2023-06-10T06:45:06;99823.16;;;13.47;100.00
43364;BME280;40636;52.424;-1.948;2023-06-10T06:47:33;99814.06;;;13.51;100.00
43364;BME280;40636;52.424;-1.948;2023-06-10T06:50:00;99819.28;;;13.42;100.00
43364;BME280;40636;52.424;-1.948;2023-06-10T06:52:28;99812.13;;;13.41;100.00
43364;BME280;40636;52.424;-1.948;2023-06-10T06:54:55;99809.44;;;13.72;100.00
43364;BME280;40636;52.424;-1.948;2023-06-10T06:57:22;99807.50;;;13.83;100.00
43364;BME280;40636;52.424;-1.948;2023-06-10T06:59:49;99813.00;;;13.88;100.00
43364;BME280;40636;52.424;-1.948;2023-06-10T07:02:16;99818.50;;;13.62;100.00
43364;BME280;40636;52.424;-1.948;2023-06-10T07:04:43;99805.28;;;13.75;100.00
43364;BME280;40636;52.424;-1.948;2023-06-10T07:07:10;99812.19;;;13.82;100.00
43364;BME280;40636;52.424;-1.948;2023-06-10T07:09:37;99799.78;;;13.90;100.00
43364;BME280;40636;52.424;-1.948;2023-06-10T07:12:05;99811.06;;;14.09;100.00
43364;BME280;40636;52.424;-1.948;2023-06-10T07:14:32;99827.88;;;14.07;100.00
43364;BME280;40636;52.424;-1.948;2023-06-10T07:16:59;99817.16;;;14.01;100.00
43364;BME280;40636;52.424;-1.948;2023-06-10T07:19:25;99817.69;;;13.98;100.00
43364;BME280;40636;52.424;-1.948;2023-06-10T07:21:52;99811.59;;;14.16;100.00
43364;BME280;40636;52.424;-1.948;2023-06-10T07:24:19;99810.22;;;14.29;100.00
43364;BME280;40636;52.424;-1.948;2023-06-10T07:26:47;99820.69;;;14.37;100.00
43364;BME280;40636;52.424;-1.948;2023-06-10T07:29:13;99813.81;;;14.19;100.00
43364;BME280;40636;52.424;-1.948;2023-06-10T07:31:41;99814.06;;;14.33;100.00
43364;BME280;40636;52.424;-1.948;2023-06-10T07:34:08;99817.97;;;14.27;100.00
43364;BME280;40636;52.424;-1.948;2023-06-10T07:36:35;99815.72;;;14.29;100.00
43364;BME280;40636;52.424;-1.948;2023-06-10T07:39:03;99817.38;;;14.30;100.00
43364;BME280;40636;52.424;-1.948;2023-06-10T07:41:29;99819.31;;;14.29;100.00
43364;BME280;40636;52.424;-1.948;2023-06-10T07:43:56;99816.28;;;14.36;100.00
43364;BME280;40636;52.424;-1.948;2023-06-10T07:46:24;99817.13;;;14.36;100.00
43364;BME280;40636;52.424;-1.948;2023-06-10T07:48:51;99811.88;;;14.50;100.00
43364;BME280;40636;52.424;-1.948;2023-06-10T07:51:18;99816.50;;;14.70;100.00
43364;BME280;40636;52.424;-1.948;2023-06-10T07:53:45;99818.38;;;14.85;100.00
43364;BME280;40636;52.424;-1.948;2023-06-10T07:56:11;99825.34;;;14.72;100.00
43364;BME280;40636;52.424;-1.948;2023-06-10T07:58:38;99819.38;;;15.09;100.00
43364;BME280;40636;52.424;-1.948;2023-06-10T08:01:05;99824.31;;;15.22;100.00
43364;BME280;40636;52.424;-1.948;2023-06-10T08:03:32;99824.78;;;15.40;100.00
43364;BME280;40636;52.424;-1.948;2023-06-10T08:05:59;99820.56;;;15.47;100.00
43364;BME280;40636;52.424;-1.948;2023-06-10T08:08:26;99819.25;;;15.40;100.00
43364;BME280;40636;52.424;-1.948;2023-06-10T08:10:53;99820.28;;;15.49;100.00
43364;BME280;40636;52.424;-1.948;2023-06-10T08:13:21;99828.00;;;15.52;100.00
43364;BME280;40636;52.424;-1.948;2023-06-10T08:15:48;99818.00;;;15.56;100.00
43364;BME280;40636;52.424;-1.948;2023-06-10T08:18:17;99822.38;;;15.72;100.00
43364;BME280;40636;52.424;-1.948;2023-06-10T08:20:44;99817.25;;;15.90;100.00
43364;BME280;40636;52.424;-1.948;2023-06-10T08:23:11;99819.94;;;16.00;100.00
43364;BME280;40636;52.424;-1.948;2023-06-10T08:25:38;99823.69;;;16.14;100.00
43364;BME280;40636;52.424;-1.948;2023-06-10T08:28:05;99822.59;;;16.10;100.00
43364;BME280;40636;52.424;-1.948;2023-06-10T08:30:31;99820.25;;;16.28;100.00
43364;BME280;40636;52.424;-1.948;2023-06-10T08:32:59;99822.50;;;16.20;100.00
43364;BME280;40636;52.424;-1.948;2023-06-10T08:35:26;99817.38;;;16.38;100.00
43364;BME280;40636;52.424;-1.948;2023-06-10T08:37:53;99824.34;;;16.59;100.00
43364;BME280;40636;52.424;-1.948;2023-06-10T08:40:20;99818.44;;;16.66;100.00
43364;BME280;40636;52.424;-1.948;2023-06-10T08:43:07;99812.69;;;16.62;100.00
43364;BME280;40636;52.424;-1.948;2023-06-10T08:45:36;99812.44;;;16.59;100.00
43364;BME280;40636;52.424;-1.948;2023-06-10T08:48:04;99821.44;;;16.74;100.00
43364;BME280;40636;52.424;-1.948;2023-06-10T08:50:36;99826.63;;;16.81;100.00
43364;BME280;40636;52.424;-1.948;2023-06-10T08:53:05;99812.91;;;16.66;100.00
43364;BME280;40636;52.424;-1.948;2023-06-10T08:55:36;99822.09;;;16.61;100.00
43364;BME280;40636;52.424;-1.948;2023-06-10T08:58:04;99825.06;;;16.94;100.00
43364;BME280;40636;52.424;-1.948;2023-06-10T09:00:31;99820.69;;;17.12;100.00
43364;BME280;40636;52.424;-1.948;2023-06-10T09:02:59;99817.34;;;17.15;100.00
43364;BME280;40636;52.424;-1.948;2023-06-10T09:05:33;99815.16;;;17.12;100.00
43364;BME280;40636;52.424;-1.948;2023-06-10T09:08:00;99819.78;;;17.40;100.00
43364;BME280;40636;52.424;-1.948;2023-06-10T09:10:27;99819.19;;;17.62;100.00
43364;BME280;40636;52.424;-1.948;2023-06-10T09:12:54;99813.47;;;17.72;100.00
43364;BME280;40636;52.424;-1.948;2023-06-10T09:15:21;99815.78;;;17.84;100.00
43364;BME280;40636;52.424;-1.948;2023-06-10T09:17:49;99817.88;;;17.92;100.00
43364;BME280;40636;52.424;-1.948;2023-06-10T09:20:16;99805.09;;;17.78;100.00
43364;BME280;40636;52.424;-1.948;2023-06-10T09:22:44;99807.28;;;17.81;100.00
43364;BME280;40636;52.424;-1.948;2023-06-10T09:25:12;99802.44;;;17.67;100.00
43364;BME280;40636;52.424;-1.948;2023-06-10T09:27:48;99804.28;;;17.77;100.00
43364;BME280;40636;52.424;-1.948;2023-06-10T09:30:31;99791.63;;;18.04;100.00
43364;BME280;40636;52.424;-1.948;2023-06-10T09:33:00;99797.22;;;18.17;100.00
43364;BME280;40636;52.424;-1.948;2023-06-10T09:35:29;99800.41;;;18.24;100.00
43364;BME280;40636;52.424;-1.948;2023-06-10T09:37:58;99802.81;;;18.45;100.00
43364;BME280;40636;52.424;-1.948;2023-06-10T09:40:25;99790.47;;;18.65;100.00
43364;BME280;40636;52.424;-1.948;2023-06-10T09:42:58;99811.91;;;18.64;100.00
43364;BME280;40636;52.424;-1.948;2023-06-10T09:45:32;99799.22;;;18.58;100.00
43364;BME280;40636;52.424;-1.948;2023-06-10T09:48:00;99795.72;;;18.66;100.00
43364;BME280;40636;52.424;-1.948;2023-06-10T09:50:27;99794.66;;;18.81;100.00
43364;BME280;40636;52.424;-1.948;2023-06-10T09:52:56;99798.72;;;18.97;100.00
43364;BME280;40636;52.424;-1.948;2023-06-10T09:55:23;99804.19;;;18.89;100.00
43364;BME280;40636;52.424;-1.948;2023-06-10T09:57:53;99802.75;;;19.05;100.00
43364;BME280;40636;52.424;-1.948;2023-06-10T10:00:22;99794.19;;;19.01;100.00
43364;BME280;40636;52.424;-1.948;2023-06-10T10:02:51;99794.63;;;19.09;100.00
43364;BME280;40636;52.424;-1.948;2023-06-10T10:05:20;99798.91;;;19.29;100.00
43364;BME280;40636;52.424;-1.948;2023-06-10T10:07:48;99801.47;;;19.25;100.00
43364;BME280;40636;52.424;-1.948;2023-06-10T10:10:17;99794.81;;;19.12;100.00
43364;BME280;40636;52.424;-1.948;2023-06-10T10:12:53;99792.31;;;19.24;100.00
43364;BME280;40636;52.424;-1.948;2023-06-10T10:15:24;99786.72;;;19.38;100.00
43364;BME280;40636;52.424;-1.948;2023-06-10T10:18:07;99793.78;;;19.58;100.00
43364;BME280;40636;52.424;-1.948;2023-06-10T10:20:41;99788.44;;;19.62;100.00
43364;BME280;40636;52.424;-1.948;2023-06-10T10:23:14;99786.38;;;19.90;100.00
43364;BME280;40636;52.424;-1.948;2023-06-10T10:25:49;99790.03;;;19.99;100.00
43364;BME280;40636;52.424;-1.948;2023-06-10T10:28:19;99780.41;;;20.05;100.00
43364;BME280;40636;52.424;-1.948;2023-06-10T10:30:54;99778.16;;;20.16;100.00
43364;BME280;40636;52.424;-1.948;2023-06-10T10:33:36;99769.66;;;20.21;100.00
43364;BME280;40636;52.424;-1.948;2023-06-10T10:36:07;99781.59;;;20.35;100.00
43364;BME280;40636;52.424;-1.948;2023-06-10T10:38:35;99773.91;;;20.41;100.00
43364;BME280;40636;52.424;-1.948;2023-06-10T10:41:03;99773.00;;;20.54;100.00
43364;BME280;40636;52.424;-1.948;2023-06-10T10:43:31;99778.66;;;20.71;100.00
43364;BME280;40636;52.424;-1.948;2023-06-10T10:46:02;99768.16;;;20.77;100.00
43364;BME280;40636;52.424;-1.948;2023-06-10T10:48:34;99764.19;;;20.69;100.00
43364;BME280;40636;52.424;-1.948;2023-06-10T10:51:03;99761.06;;;20.71;100.00
43364;BME280;40636;52.424;-1.948;2023-06-10T10:53:30;99749.13;;;20.79;100.00
43364;BME280;40636;52.424;-1.948;2023-06-10T10:56:12;99755.50;;;20.71;100.00
43364;BME280;40636;52.424;-1.948;2023-06-10T10:58:40;99747.53;;;20.87;100.00
43364;BME280;40636;52.424;-1.948;2023-06-10T11:01:14;99750.84;;;21.06;100.00
43364;BME280;40636;52.424;-1.948;2023-06-10T11:03:45;99762.84;;;21.15;100.00
43364;BME280;40636;52.424;-1.948;2023-06-10T11:06:17;99755.97;;;21.13;100.00
43364;BME280;40636;52.424;-1.948;2023-06-10T11:08:45;99761.69;;;21.16;100.00
43364;BME280;40636;52.424;-1.948;2023-06-10T11:11:27;99751.22;;;21.22;100.00
43364;BME280;40636;52.424;-1.948;2023-06-10T11:16:28;99753.91;;;21.53;100.00
43364;BME280;40636;52.424;-1.948;2023-06-10T11:18:56;99747.97;;;21.63;100.00
43364;BME280;40636;52.424;-1.948;2023-06-10T11:21:23;99755.03;;;21.78;100.00
43364;BME280;40636;52.424;-1.948;2023-06-10T11:23:57;99747.28;;;21.84;100.00
43364;BME280;40636;52.424;-1.948;2023-06-10T11:31:33;99746.28;;;21.97;100.00
43364;BME280;40636;52.424;-1.948;2023-06-10T11:34:04;99739.69;;;22.10;100.00
43364;BME280;40636;52.424;-1.948;2023-06-10T11:36:34;99736.06;;;22.18;100.00
43364;BME280;40636;52.424;-1.948;2023-06-10T11:39:05;99734.09;;;22.10;100.00
43364;BME280;40636;52.424;-1.948;2023-06-10T11:41:33;99731.63;;;22.09;100.00
43364;BME280;40636;52.424;-1.948;2023-06-10T11:44:07;99739.69;;;22.19;100.00
43364;BME280;40636;52.424;-1.948;2023-06-10T11:46:35;99739.47;;;22.33;100.00
43364;BME280;40636;52.424;-1.948;2023-06-10T11:49:04;99731.41;;;22.40;100.00
43364;BME280;40636;52.424;-1.948;2023-06-10T11:51:36;99737.59;;;22.54;100.00
43364;BME280;40636;52.424;-1.948;2023-06-10T11:54:07;99746.50;;;22.47;100.00
43364;BME280;40636;52.424;-1.948;2023-06-10T11:56:35;99735.25;;;22.56;100.00
43364;BME280;40636;52.424;-1.948;2023-06-10T11:59:03;99733.44;;;22.60;100.00
43364;BME280;40636;52.424;-1.948;2023-06-10T12:01:33;99729.28;;;22.66;100.00
43364;BME280;40636;52.424;-1.948;2023-06-10T12:06:47;99720.53;;;22.76;100.00
43364;BME280;40636;52.424;-1.948;2023-06-10T12:09:29;99721.03;;;22.70;100.00
43364;BME280;40636;52.424;-1.948;2023-06-10T12:12:04;99713.97;;;22.72;100.00
43364;BME280;40636;52.424;-1.948;2023-06-10T12:17:23;99720.59;;;22.89;100.00
43364;BME280;40636;52.424;-1.948;2023-06-10T12:19:51;99708.44;;;22.93;100.00
43364;BME280;40636;52.424;-1.948;2023-06-10T12:22:18;99717.41;;;23.08;100.00
43364;BME280;40636;52.424;-1.948;2023-06-10T12:24:58;99715.38;;;23.17;100.00
43364;BME280;40636;52.424;-1.948;2023-06-10T12:27:26;99713.13;;;23.31;100.00
43364;BME280;40636;52.424;-1.948;2023-06-10T12:29:55;99704.28;;;23.41;100.00
43364;BME280;40636;52.424;-1.948;2023-06-10T12:32:37;99695.69;;;23.46;100.00
43364;BME280;40636;52.424;-1.948;2023-06-10T12:35:05;99711.13;;;23.73;100.00
43364;BME280;40636;52.424;-1.948;2023-06-10T12:37:33;99707.84;;;23.71;100.00
43364;BME280;40636;52.424;-1.948;2023-06-10T12:40:01;99708.81;;;23.75;100.00
43364;BME280;40636;52.424;-1.948;2023-06-10T12:42:46;99692.50;;;23.90;100.00
43364;BME280;40636;52.424;-1.948;2023-06-10T12:45:29;99695.22;;;24.11;100.00
43364;BME280;40636;52.424;-1.948;2023-06-10T12:48:10;99695.94;;;24.20;100.00
43364;BME280;40636;52.424;-1.948;2023-06-10T12:50:41;99691.97;;;24.21;100.00
43364;BME280;40636;52.424;-1.948;2023-06-10T12:53:09;99692.91;;;24.25;100.00
43364;BME280;40636;52.424;-1.948;2023-06-10T12:55:38;99699.22;;;24.34;100.00
43364;BME280;40636;52.424;-1.948;2023-06-10T12:58:05;99687.94;;;24.43;100.00
43364;BME280;40636;52.424;-1.948;2023-06-10T13:00:32;99681.63;;;24.46;100.00
43364;BME280;40636;52.424;-1.948;2023-06-10T13:03:02;99678.00;;;24.58;100.00
43364;BME280;40636;52.424;-1.948;2023-06-10T13:05:29;99680.47;;;24.71;100.00